Observations for GROSSETO IT-AFB, Italy (LIRS)

LIRS 201955Z 12003KT CAVOK 05/04 Q1025  
LIRS 201855Z 10001KT CAVOK 07/05 Q1025  
LIRS 201855Z 10001KT CAVOK 07/05 Q1025 RMK FEW FEW200 VIS MIN 9999 WIND THR03 VRB02KT WIND THR21 VRB01KT BLU
LIRS 201755Z 28003KT CAVOK 08/05 Q1024  
LIRS 201755Z 28003KT CAVOK 08/05 Q1024 RMK SKC VIS MIN 9999 WIND THR03 35003KT WIND THR21 31002KT BLU
LIRS 201655Z 25005KT CAVOK 10/06 Q1024  
LIRS 201655Z 25005KT CAVOK 10/06 Q1024 RMK FEW FEW090 VIS MIN 9999 WIND THR03 22005KT WIND THR21 25005KT BLU
LIRS 201555Z 25010KT CAVOK 13/06 Q1024  
LIRS 201555Z 25010KT CAVOK 13/06 Q1024 RMK FEW FEW070 VIS MIN 9999 WIND THR03 25009KT WIND THR21 23008KT BLU
LIRS 201455Z 23011KT 9999 FEW060 14/05 Q1024
LIRS 201455Z 23011KT 9999 FEW060 14/05 Q1024 RMK FEW VIS MIN 9999 WIND THR03 23012KT WIND THR21 24011KT BLU
LIRS 201355Z 24012KT 9999 SCT060 14/05 Q1024
LIRS 201355Z 24012KT 9999 SCT060 14/05 Q1024 RMK SCT VIS MIN 9999 WIND THR03 23011KT WIND THR21 24012KT BLU
LIRS 201255Z 24006KT 180V310 9999 SCT060 15/04 Q1024
LIRS 201255Z 24006KT 180V310 9999 SCT060 15/04 Q1024 RMK SCT VIS MIN 9999 WIND THR03 26006KT WIND THR21 24004KT BLU
LIRS 201155Z 23004KT 9999 SCT060 15/05 Q1024
LIRS 201155Z 23004KT 9999 SCT060 15/05 Q1024 RMK SCT VIS MIN 9999 WIND THR03 23004KT WIND THR21 27002KT BLU
LIRS 201055Z VRB01KT 9999 FEW050 SCT060 13/03 Q1025 
LIRS 201055Z VRB01KT 9999 FEW050 SCT060 13/03 Q1025 RMK SCT VIS MIN 9999 WIND THR03 VRB02KT WIND THR21 VRB01KT BLU
LIRS 200955Z 07004KT 9999 BKN053 11/04 Q1025
LIRS 200955Z 07004KT 9999 BKN053 11/04 Q1025 RMK BKN VIS MIN 9999 WIND THR03 04005KT WIND THR21 06005KT BLU
LIRS 200855Z 35003KT 9999 OVC053 09/05 Q1024
LIRS 200855Z 35003KT 9999 OVC053 09/05 Q1024 RMK OVC VIS MIN 9999 WIND THR03 01003KT WIND THR21 36003KT BLU
LIRS 200755Z 36003KT 9999 OVC050 07/03 Q1024
LIRS 200755Z 36003KT 9999 OVC050 07/03 Q1024 RMK OVC VIS MIN 9999 WIND THR03 02003KT WIND THR21 36002KT BLU
LIRS 200655Z VRB02KT 9999 BKN045 05/02 Q1024
LIRS 200655Z VRB02KT 9999 BKN045 05/02 Q1024 RMK BKN VIS MIN 9999 WIND THR03 01004KT WIND THR21 01004KT BLU
LIRS 200555Z VRB01KT 9999 OVC045 06/02 Q1023
LIRS 200555Z VRB01KT 9999 OVC045 06/02 Q1023 RMK OVC VIS MIN 9999NE WIND THR03 06004KT WIND THR21 VRB02KT BLU
LIRS 200455Z 04005KT 9999 OVC045 06/02 Q1023
LIRS 200455Z 04005KT 9999 OVC045 06/02 Q1023 RMK OVC VIS MIN 9000NE WIND THR03 06003KT 040V130 WIND THR21 06003KT BLU
LIRS 200355Z 07006KT 9999 BKN045 05/02 Q1023 RMK BKN VIS MIN 9000NE WIND THR03 08007KT WIND THR21 09007KT BLU   
LIRS 200255Z 06006KT 9999 BKN040 05/02 Q1023 RMK BKN VIS MIN 9999NE WIND THR03 08005KT WIND THR21 08006KT BLU   
LIRS 200155Z 06005KT 9999 BKN040 04/02 Q1023 RMK BKN VIS MIN 9999NE WIND THR03 05005KT WIND THR21 08005KT BLU   
LIRS 200055Z 03004KT 9999 BKN040 04/02 Q1023
LIRS 200055Z 03004KT 9999 BKN040 04/02 Q1023 RMK BKN VIS MIN 9999NE WIND THR03 01003KT WIND THR21 VRB02KT BLU
LIRS 192355Z 05004KT 9999 BKN040 02/00 Q1023 RMK BKN VIS MIN 9999NE WIND THR03 02004KT 280V080 WIND THR21 06004KT BLU   
LIRS 192255Z 02003KT 9999 SCT040 02/M00 Q1023 RMK SCT VIS MIN 9999N WIND THR03 03003KT WIND THR21 02003KT BLU   
LIRS 192155Z 09003KT 9999 FEW040 01/M00 Q1024   
LIRS 192155Z 09003KT 9999 FEW040 01/M00 Q1024 RMK FEW VIS MIN 9999 WIND THR03 09003KT WIND THR21 10003KT BLU
LIRS 192055Z 02004KT 9999 FEW040 03/01 Q1023
LIRS 192055Z 02004KT 9999 FEW040 03/01 Q1023 RMK SCT SCT090 VIS MIN 9999N WIND THR03 01004KT WIND THR21 02004KT BLU
LIRS 191955Z 02002KT 9999 SCT040 04/01 Q1023
LIRS 191955Z 02002KT 9999 SCT040 04/01 Q1023 RMK SCT VIS MIN 9999 WIND THR03 03002KT WIND THR21 02003KT BLU